<?xml version='1.0' encoding='UTF-8'?>
<gpx xmlns="http://www.topografix.com/GPX/1/1" creator="www.balnam.be" version="1.1" xmlns:xsi="http://www.w3.org/2001/XMLSchema-instance" xsi:schemaLocation="http://www.topografix.com/GPX/1/1 http://www.topografix.com/GPX/1/1/gpx.xsd">
<trk>
<name>xlblb25</name>
<cmt>q</cmt>
<desc>Libin Chemin n°25 trace du poste 15 / Rue d'Hatrival</desc>
<link href="https://chemins.be/libin/chemin/25"/><trkseg>
<trkpt lat="49.964806" lon="5.288927"><time>2026-05-02T17:08:39Z</time></trkpt>
<trkpt lat="49.966427" lon="5.288831"><time>2026-05-02T17:18:39Z</time></trkpt>
<trkpt lat="49.967840" lon="5.287396"><time>2026-05-02T17:28:39Z</time></trkpt>
<trkpt lat="49.969372" lon="5.287085"><time>2026-05-02T17:38:39Z</time></trkpt>
<trkpt lat="49.970787" lon="5.288705"><time>2026-05-02T17:48:39Z</time></trkpt>
</trkseg></trk>
<trk>
<name>xlblb25</name>
<cmt>v</cmt>
<desc>Libin Chemin n°25 trace du poste 15 / Rue d'Hatrival</desc>
<link href="https://chemins.be/libin/chemin/25"/><trkseg>
<trkpt lat="49.970787" lon="5.288705"><time>2026-05-02T17:48:39Z</time></trkpt>
<trkpt lat="49.971643" lon="5.290292"><time>2026-05-02T17:58:39Z</time></trkpt>
<trkpt lat="49.972988" lon="5.290174"><time>2026-05-02T18:08:39Z</time></trkpt>
<trkpt lat="49.974687" lon="5.288103"><time>2026-05-02T18:18:39Z</time></trkpt>
<trkpt lat="49.976735" lon="5.286570"><time>2026-05-02T18:28:39Z</time></trkpt>
<trkpt lat="49.977509" lon="5.286545"><time>2026-05-02T18:38:39Z</time></trkpt>
<trkpt lat="49.978032" lon="5.286755"><time>2026-05-02T18:48:39Z</time></trkpt>
<trkpt lat="49.978709" lon="5.287625"><time>2026-05-02T18:58:39Z</time></trkpt>
<trkpt lat="49.979919" lon="5.287415"><time>2026-05-02T19:08:39Z</time></trkpt>
<trkpt lat="49.981729" lon="5.286535"><time>2026-05-02T19:18:39Z</time></trkpt>
<trkpt lat="49.981969" lon="5.286415"><time>2026-05-02T19:28:39Z</time></trkpt>
<trkpt lat="49.984822" lon="5.286185"><time>2026-05-02T19:38:39Z</time></trkpt>
<trkpt lat="49.985709" lon="5.286025"><time>2026-05-02T19:48:39Z</time></trkpt>
<trkpt lat="49.987119" lon="5.285445"><time>2026-05-02T19:58:39Z</time></trkpt>
<trkpt lat="49.990799" lon="5.283855"><time>2026-05-02T20:08:39Z</time></trkpt>
<trkpt lat="49.991419" lon="5.285245"><time>2026-05-02T20:18:39Z</time></trkpt>
<trkpt lat="49.991469" lon="5.285405"><time>2026-05-02T20:28:39Z</time></trkpt>
<trkpt lat="49.993469" lon="5.286775"><time>2026-05-02T20:38:39Z</time></trkpt>
<trkpt lat="49.994699" lon="5.286715"><time>2026-05-02T20:48:39Z</time></trkpt>
<trkpt lat="49.996440" lon="5.286695"><time>2026-05-02T20:58:39Z</time></trkpt>
<trkpt lat="49.998370" lon="5.287645"><time>2026-05-02T21:08:39Z</time></trkpt>
<trkpt lat="49.999030" lon="5.287895"><time>2026-05-02T21:18:39Z</time></trkpt>
<trkpt lat="49.999340" lon="5.287885"><time>2026-05-02T21:28:39Z</time></trkpt>
<trkpt lat="49.999770" lon="5.287975"><time>2026-05-02T21:38:39Z</time></trkpt>
<trkpt lat="50.000180" lon="5.287845"><time>2026-05-02T21:48:39Z</time></trkpt>
<trkpt lat="50.000390" lon="5.287945"><time>2026-05-02T21:58:39Z</time></trkpt>
<trkpt lat="50.000780" lon="5.287965"><time>2026-05-02T22:08:39Z</time></trkpt>
<trkpt lat="50.001267" lon="5.288081"><time>2026-05-02T22:18:39Z</time></trkpt>
</trkseg></trk>
<trk>
<name>xlblb25</name>
<cmt>d</cmt>
<desc>Libin Chemin n°25 trace du poste 15 / Rue d'Hatrival</desc>
<link href="https://chemins.be/libin/chemin/25"/><trkseg>
<trkpt lat="50.001267" lon="5.288081"><time>2026-05-02T22:18:39Z</time></trkpt>
<trkpt lat="50.003083" lon="5.288190"><time>2026-05-02T22:28:39Z</time></trkpt>
</trkseg></trk>
<trk>
<name>xlblb25</name>
<cmt>v</cmt>
<desc>Libin Chemin n°25 trace du poste 15 / Rue d'Hatrival</desc>
<link href="https://chemins.be/libin/chemin/25"/><trkseg>
<trkpt lat="50.003083" lon="5.288190"><time>2026-05-02T22:28:39Z</time></trkpt>
<trkpt lat="50.004297" lon="5.289735"><time>2026-05-02T22:38:39Z</time></trkpt>
<trkpt lat="50.006415" lon="5.289838"><time>2026-05-02T22:48:39Z</time></trkpt>
<trkpt lat="50.007772" lon="5.288830"><time>2026-05-02T22:58:39Z</time></trkpt>
<trkpt lat="50.008875" lon="5.288152"><time>2026-05-02T23:08:39Z</time></trkpt>
<trkpt lat="50.009681" lon="5.287348"><time>2026-05-02T23:18:39Z</time></trkpt>
<trkpt lat="50.013310" lon="5.285860"><time>2026-05-02T23:28:39Z</time></trkpt>
<trkpt lat="50.015047" lon="5.286075"><time>2026-05-02T23:38:39Z</time></trkpt>
<trkpt lat="50.016994" lon="5.285735"><time>2026-05-02T23:48:39Z</time></trkpt>
</trkseg>
</trk>
</gpx>